createdAt,value
2018-09-27T00:01:41.664Z,18.00
2018-09-27T00:04:09.917Z,18.00
2018-09-27T00:06:38.635Z,17.90
2018-09-27T00:09:07.801Z,17.90
2018-09-27T00:11:36.097Z,18.00
2018-09-27T00:14:04.455Z,17.90
2018-09-27T00:16:34.790Z,17.90
2018-09-27T00:19:02.933Z,17.90
2018-09-27T00:21:31.503Z,17.90
2018-09-27T00:24:00.289Z,17.90
2018-09-27T00:26:28.772Z,17.80
2018-09-27T00:28:57.671Z,17.80
2018-09-27T00:31:26.773Z,17.80
2018-09-27T00:33:58.156Z,17.80
2018-09-27T00:36:26.912Z,17.80
2018-09-27T00:38:55.304Z,17.80
2018-09-27T00:41:23.983Z,17.80
2018-09-27T00:43:52.599Z,17.80
2018-09-27T00:46:21.164Z,17.70
2018-09-27T00:48:49.621Z,17.80
2018-09-27T00:51:18.437Z,17.70
2018-09-27T00:53:46.615Z,17.70
2018-09-27T00:56:20.602Z,17.70
2018-09-27T00:58:50.752Z,17.70
2018-09-27T01:01:27.415Z,17.70
2018-09-27T01:04:10.334Z,17.60
2018-09-27T01:06:43.429Z,17.60
2018-09-27T01:09:23.271Z,17.60
2018-09-27T01:11:57.310Z,17.60
2018-09-27T01:14:30.682Z,17.60
2018-09-27T01:16:59.067Z,17.60
2018-09-27T01:19:31.134Z,17.60
2018-09-27T01:22:05.567Z,17.60
2018-09-27T01:24:35.673Z,17.60
2018-09-27T01:27:05.688Z,17.50
2018-09-27T01:29:36.400Z,17.60
2018-09-27T01:32:04.733Z,17.50
2018-09-27T01:34:33.070Z,17.50
2018-09-27T01:37:01.262Z,17.50
2018-09-27T01:39:31.500Z,17.50
2018-09-27T01:42:00.017Z,17.50
2018-09-27T01:44:32.413Z,17.50
2018-09-27T01:47:01.145Z,17.50
2018-09-27T01:49:34.846Z,17.50
2018-09-27T01:52:09.118Z,17.50
2018-09-27T01:54:40.075Z,17.40
2018-09-27T01:57:11.951Z,17.50
2018-09-27T01:59:42.581Z,17.40
2018-09-27T02:02:12.637Z,17.40
2018-09-27T02:04:40.746Z,17.40
2018-09-27T02:07:09.089Z,17.40
2018-09-27T02:09:37.340Z,17.40
2018-09-27T02:12:05.723Z,17.40
2018-09-27T02:14:33.841Z,17.40
2018-09-27T02:17:01.978Z,17.30
2018-09-27T02:19:30.086Z,17.40
2018-09-27T02:21:58.261Z,17.40
2018-09-27T02:24:26.060Z,17.40
2018-09-27T02:26:53.909Z,17.40
2018-09-27T02:29:22.079Z,17.30
2018-09-27T02:31:50.259Z,17.30
2018-09-27T02:34:17.953Z,17.30
2018-09-27T02:36:45.746Z,17.30
2018-09-27T02:39:14.444Z,17.30
2018-09-27T02:41:42.766Z,17.30
2018-09-27T02:44:11.153Z,17.30
2018-09-27T02:46:50.280Z,17.30
2018-09-27T02:49:18.071Z,17.20
2018-09-27T02:51:45.926Z,17.20
2018-09-27T02:54:16.413Z,17.20
2018-09-27T02:56:44.345Z,17.20
2018-09-27T02:59:12.406Z,17.20
2018-09-27T03:01:44.001Z,17.20
2018-09-27T03:04:11.655Z,17.20
2018-09-27T03:06:39.156Z,17.20
2018-09-27T03:09:08.647Z,17.20
2018-09-27T03:11:37.221Z,17.20
2018-09-27T03:14:05.097Z,17.20
2018-09-27T03:16:33.824Z,17.20
2018-09-27T03:19:02.062Z,17.20
2018-09-27T03:21:30.278Z,17.20
2018-09-27T03:23:58.146Z,17.20
2018-09-27T03:26:25.737Z,17.20
2018-09-27T03:28:53.683Z,17.10
2018-09-27T03:31:21.284Z,17.20
2018-09-27T03:33:49.521Z,17.10
2018-09-27T03:36:17.465Z,17.10
2018-09-27T03:38:45.991Z,17.10
2018-09-27T03:41:14.584Z,17.10
2018-09-27T03:43:42.195Z,17.10
2018-09-27T03:46:09.596Z,17.10
2018-09-27T03:48:37.737Z,17.10
2018-09-27T03:51:05.887Z,17.10
2018-09-27T03:53:33.752Z,17.10
2018-09-27T03:56:01.715Z,17.10
2018-09-27T03:58:29.385Z,17.10
2018-09-27T04:00:56.823Z,17.10
2018-09-27T04:03:24.530Z,17.10
2018-09-27T04:05:52.628Z,17.10
2018-09-27T04:08:22.029Z,17.10
2018-09-27T04:10:49.994Z,17.10
2018-09-27T04:13:18.140Z,17.10
2018-09-27T04:15:45.798Z,17.00
2018-09-27T04:18:13.688Z,17.10
2018-09-27T04:20:47.551Z,17.00
2018-09-27T04:23:14.868Z,17.00
2018-09-27T04:25:42.621Z,17.00
2018-09-27T04:28:10.640Z,17.00
2018-09-27T04:30:38.616Z,17.00
2018-09-27T04:33:05.910Z,17.00
2018-09-27T04:35:33.721Z,17.00
2018-09-27T04:38:01.370Z,17.00
2018-09-27T04:40:29.725Z,17.00
2018-09-27T04:42:57.909Z,17.00
2018-09-27T04:45:25.449Z,17.00
2018-09-27T04:47:53.395Z,17.00
2018-09-27T04:50:21.615Z,17.00
2018-09-27T04:52:49.446Z,17.00
2018-09-27T04:55:17.072Z,17.00
2018-09-27T04:57:44.734Z,17.00
2018-09-27T05:00:12.707Z,17.00
2018-09-27T05:02:40.239Z,17.00
2018-09-27T05:05:08.054Z,17.00
2018-09-27T05:07:36.102Z,17.00
2018-09-27T05:10:04.070Z,17.00
2018-09-27T05:12:32.285Z,17.00
2018-09-27T05:14:59.978Z,17.00
2018-09-27T05:17:27.697Z,16.90
2018-09-27T05:19:55.453Z,17.00
2018-09-27T05:22:23.117Z,17.00
2018-09-27T05:24:50.703Z,16.90
2018-09-27T05:27:18.635Z,17.00
2018-09-27T05:29:46.305Z,16.90
2018-09-27T05:32:14.220Z,16.90
2018-09-27T05:34:42.002Z,16.90
2018-09-27T05:37:09.815Z,16.90
2018-09-27T05:39:37.977Z,16.90
2018-09-27T05:42:05.551Z,16.90
2018-09-27T05:44:33.254Z,16.90
2018-09-27T05:47:00.735Z,16.90
2018-09-27T05:49:28.302Z,16.90
2018-09-27T05:51:56.323Z,16.90
2018-09-27T05:54:23.829Z,16.90
2018-09-27T05:56:51.376Z,16.90
2018-09-27T05:59:18.892Z,16.90
2018-09-27T06:01:46.579Z,16.90
2018-09-27T06:04:14.414Z,16.90
2018-09-27T06:06:41.921Z,16.90
2018-09-27T06:09:11.329Z,16.90
2018-09-27T06:11:39.089Z,16.90
2018-09-27T06:14:07.278Z,16.90
2018-09-27T06:16:35.438Z,16.90
2018-09-27T06:19:03.141Z,16.90
2018-09-27T06:21:31.009Z,16.90
2018-09-27T06:23:58.191Z,16.90
2018-09-27T06:26:25.447Z,16.90
2018-09-27T06:28:52.660Z,16.90
2018-09-27T06:31:19.962Z,16.90
2018-09-27T06:33:47.190Z,17.00
2018-09-27T06:36:14.439Z,17.00
2018-09-27T06:38:41.854Z,17.00
2018-09-27T06:41:10.035Z,17.00
2018-09-27T06:43:37.632Z,17.00
2018-09-27T06:46:05.265Z,17.10
2018-09-27T06:48:32.757Z,17.10
2018-09-27T06:51:00.312Z,17.10
2018-09-27T06:53:28.050Z,17.10
2018-09-27T06:55:55.905Z,17.20
2018-09-27T06:58:23.395Z,17.20
2018-09-27T07:00:51.009Z,17.20
2018-09-27T07:03:18.678Z,17.20
2018-09-27T07:05:47.271Z,17.20
2018-09-27T07:08:14.724Z,17.20
2018-09-27T07:10:42.293Z,17.20
2018-09-27T07:13:09.818Z,17.30
2018-09-27T07:15:37.752Z,17.30
2018-09-27T07:18:05.935Z,17.30
2018-09-27T07:20:33.954Z,17.30
2018-09-27T07:23:01.670Z,17.30
2018-09-27T07:25:29.273Z,17.30
2018-09-27T07:27:57.770Z,17.30
2018-09-27T07:30:25.369Z,17.40
2018-09-27T07:32:53.197Z,17.40
2018-09-27T07:35:20.743Z,17.40
2018-09-27T07:37:49.556Z,17.40
2018-09-27T07:40:17.035Z,17.40
2018-09-27T07:42:46.248Z,17.40
2018-09-27T07:45:14.598Z,17.40
2018-09-27T07:47:42.699Z,17.50
2018-09-27T07:50:10.835Z,17.40
2018-09-27T07:52:39.442Z,17.40
2018-09-27T07:55:07.543Z,17.40
2018-09-27T07:57:35.769Z,17.40
2018-09-27T08:00:04.589Z,17.40
2018-09-27T08:02:32.611Z,17.40
2018-09-27T08:05:00.398Z,17.40
2018-09-27T08:07:28.352Z,17.50
2018-09-27T08:09:56.669Z,17.40
2018-09-27T08:12:24.162Z,17.40
2018-09-27T08:14:52.000Z,17.50
2018-09-27T08:17:20.107Z,17.40
2018-09-27T08:19:47.783Z,17.40
2018-09-27T08:22:15.882Z,17.40
2018-09-27T08:24:43.816Z,17.40
2018-09-27T08:27:11.892Z,17.40
2018-09-27T08:29:39.445Z,17.40
2018-09-27T08:32:07.092Z,17.40
2018-09-27T08:34:34.586Z,17.40
2018-09-27T08:37:02.421Z,17.50
2018-09-27T08:39:30.321Z,17.50
2018-09-27T08:41:58.272Z,17.50
2018-09-27T08:44:26.162Z,17.50
2018-09-27T08:46:53.963Z,17.50
2018-09-27T08:49:21.790Z,17.50
2018-09-27T08:51:49.804Z,17.50
2018-09-27T08:54:17.766Z,17.60
2018-09-27T08:56:45.306Z,17.50
2018-09-27T08:59:12.841Z,17.50
2018-09-27T09:01:40.483Z,17.50
2018-09-27T09:04:08.462Z,17.50
2018-09-27T09:06:36.331Z,17.50
2018-09-27T09:09:07.156Z,17.50
2018-09-27T09:11:35.032Z,17.50
2018-09-27T09:14:03.237Z,17.60
2018-09-27T09:16:31.150Z,17.60
2018-09-27T09:18:58.936Z,17.60
2018-09-27T09:21:27.303Z,17.60
2018-09-27T09:23:55.805Z,17.60
2018-09-27T09:26:23.964Z,17.60
2018-09-27T09:28:52.114Z,17.60
2018-09-27T09:31:20.002Z,17.60
2018-09-27T09:33:47.777Z,17.60
2018-09-27T09:36:15.506Z,17.60
2018-09-27T09:38:43.416Z,17.60
2018-09-27T09:41:11.313Z,17.60
2018-09-27T09:43:39.290Z,17.60
2018-09-27T09:46:07.118Z,17.60
2018-09-27T09:48:35.026Z,17.60
2018-09-27T09:51:02.666Z,17.60
2018-09-27T09:53:30.627Z,17.60
2018-09-27T09:55:58.195Z,17.60
2018-09-27T09:58:25.660Z,17.60
2018-09-27T10:00:53.358Z,17.60
2018-09-27T10:03:21.125Z,17.60
2018-09-27T10:05:48.936Z,17.60
2018-09-27T10:08:17.076Z,17.60
2018-09-27T10:10:45.323Z,17.60
2018-09-27T10:13:13.162Z,17.60
2018-09-27T10:15:41.230Z,17.70
2018-09-27T10:18:09.146Z,17.70
2018-09-27T10:20:37.029Z,17.80
2018-09-27T10:23:04.885Z,17.80
2018-09-27T10:25:32.747Z,17.90
2018-09-27T10:28:00.307Z,17.90
2018-09-27T10:30:28.021Z,18.00
2018-09-27T10:32:55.738Z,18.10
2018-09-27T10:35:23.337Z,18.20
2018-09-27T10:37:51.188Z,18.20
2018-09-27T10:40:18.915Z,18.30
2018-09-27T10:42:46.714Z,18.40
2018-09-27T10:45:14.277Z,18.40
2018-09-27T10:47:42.090Z,18.50
2018-09-27T10:50:10.144Z,18.50
2018-09-27T10:52:38.538Z,18.60
2018-09-27T10:55:06.022Z,18.70
2018-09-27T10:57:34.536Z,18.80
2018-09-27T11:00:02.376Z,18.80
2018-09-27T11:02:30.073Z,18.90
2018-09-27T11:04:57.693Z,18.90
2018-09-27T11:07:25.063Z,19.00
2018-09-27T11:09:52.496Z,19.10
2018-09-27T11:12:19.991Z,19.10
2018-09-27T11:14:47.683Z,19.10
2018-09-27T11:17:15.639Z,19.20
2018-09-27T11:19:43.221Z,19.20
2018-09-27T11:22:11.171Z,19.20
2018-09-27T11:24:38.823Z,19.30
2018-09-27T11:27:06.588Z,19.30
2018-09-27T11:29:39.884Z,19.30
2018-09-27T11:32:14.258Z,19.30
2018-09-27T11:34:41.786Z,19.40
2018-09-27T11:37:09.676Z,19.40
2018-09-27T11:39:37.598Z,19.40
2018-09-27T11:42:05.547Z,19.40
2018-09-27T11:44:33.167Z,19.50
2018-09-27T11:47:00.870Z,19.50
2018-09-27T11:49:28.806Z,19.50
2018-09-27T11:51:57.375Z,19.50
2018-09-27T11:54:25.248Z,19.60
2018-09-27T11:56:52.828Z,19.60
2018-09-27T11:59:20.432Z,19.60
2018-09-27T12:01:48.112Z,19.70
2018-09-27T12:04:15.968Z,19.70
2018-09-27T12:06:43.783Z,19.70
2018-09-27T12:09:12.637Z,19.70
2018-09-27T12:11:40.475Z,19.70
2018-09-27T12:14:08.834Z,19.70
2018-09-27T12:16:36.437Z,19.70
2018-09-27T12:19:03.889Z,19.70
2018-09-27T12:21:31.723Z,19.70
2018-09-27T12:23:59.680Z,19.70
2018-09-27T12:26:27.505Z,19.80
2018-09-27T12:28:54.916Z,19.70
2018-09-27T12:31:22.792Z,19.70
2018-09-27T12:33:50.670Z,19.80
2018-09-27T12:36:18.624Z,19.70
2018-09-27T12:38:46.158Z,19.80
2018-09-27T12:41:14.132Z,19.80
2018-09-27T12:43:41.727Z,19.80
2018-09-27T12:46:09.991Z,19.80
2018-09-27T12:48:37.872Z,19.80
2018-09-27T12:51:05.770Z,19.80
2018-09-27T12:53:33.119Z,19.80
2018-09-27T12:56:00.539Z,19.80
2018-09-27T12:58:28.219Z,19.80
2018-09-27T13:00:55.997Z,19.70
2018-09-27T13:03:23.913Z,19.60
2018-09-27T13:05:51.409Z,19.60
2018-09-27T13:08:18.881Z,19.60
2018-09-27T13:10:46.507Z,19.60
2018-09-27T13:13:14.302Z,19.60
2018-09-27T13:15:41.840Z,19.60
2018-09-27T13:18:09.323Z,19.50
2018-09-27T13:20:36.876Z,19.50
2018-09-27T13:23:04.318Z,19.50
2018-09-27T13:25:33.274Z,19.50
2018-09-27T13:28:01.364Z,19.50
2018-09-27T13:30:29.229Z,19.50
2018-09-27T13:32:57.092Z,19.50
2018-09-27T13:35:24.746Z,19.40
2018-09-27T13:37:52.389Z,19.50
2018-09-27T13:40:20.324Z,19.40
2018-09-27T13:42:48.252Z,19.50
2018-09-27T13:45:15.933Z,19.50
2018-09-27T13:47:43.392Z,19.50
2018-09-27T13:50:11.126Z,19.50
2018-09-27T13:52:38.789Z,19.50
2018-09-27T13:55:06.833Z,19.50
2018-09-27T13:57:34.601Z,19.50
2018-09-27T14:00:02.165Z,19.50
2018-09-27T14:02:30.906Z,19.50
2018-09-27T14:04:59.254Z,19.50
2018-09-27T14:07:27.333Z,19.50
2018-09-27T14:09:55.392Z,19.50
2018-09-27T14:12:23.787Z,19.50
2018-09-27T14:14:51.657Z,19.50
2018-09-27T14:17:19.185Z,19.50
2018-09-27T14:19:46.637Z,19.50
2018-09-27T14:22:14.296Z,19.40
2018-09-27T14:24:42.301Z,19.50
2018-09-27T14:27:09.865Z,19.40
2018-09-27T14:29:37.437Z,19.40
2018-09-27T14:32:05.753Z,19.40
2018-09-27T14:34:33.612Z,19.40
2018-09-27T14:37:01.178Z,19.40
2018-09-27T14:39:28.866Z,19.40
2018-09-27T14:41:56.462Z,19.40
2018-09-27T14:44:24.348Z,19.40
2018-09-27T14:46:51.961Z,19.40
2018-09-27T14:49:19.765Z,19.40
2018-09-27T14:51:47.677Z,19.40
2018-09-27T14:54:15.268Z,19.40
2018-09-27T14:56:43.145Z,19.40
2018-09-27T14:59:10.775Z,19.40
2018-09-27T15:01:38.297Z,19.30
2018-09-27T15:04:06.945Z,19.40
2018-09-27T15:06:34.354Z,19.30
2018-09-27T15:09:02.597Z,19.30
2018-09-27T15:11:30.496Z,19.30
2018-09-27T15:13:58.243Z,19.30
2018-09-27T15:16:25.711Z,19.30
2018-09-27T15:18:53.223Z,19.20
2018-09-27T15:21:20.889Z,19.30
2018-09-27T15:23:48.594Z,19.30
2018-09-27T15:26:16.503Z,19.20
2018-09-27T15:28:43.937Z,19.20
2018-09-27T15:31:11.508Z,19.30
2018-09-27T15:33:38.985Z,19.20
2018-09-27T15:36:06.793Z,19.20
2018-09-27T15:38:34.707Z,19.20
2018-09-27T15:41:02.513Z,19.20
2018-09-27T15:43:30.291Z,19.20
2018-09-27T15:45:57.911Z,19.20
2018-09-27T15:48:25.549Z,19.20
2018-09-27T15:50:53.553Z,19.20
2018-09-27T15:53:21.392Z,19.20
2018-09-27T15:55:48.903Z,19.20
2018-09-27T15:58:16.585Z,19.20
2018-09-27T16:00:44.423Z,19.20
2018-09-27T16:03:11.944Z,19.10
2018-09-27T16:05:39.355Z,19.20
2018-09-27T16:08:06.681Z,19.10
2018-09-27T16:10:34.509Z,19.10
2018-09-27T16:13:02.281Z,19.10
2018-09-27T16:15:30.374Z,19.10
2018-09-27T16:17:58.112Z,19.10
2018-09-27T16:20:25.660Z,19.10
2018-09-27T16:22:53.357Z,19.10
2018-09-27T16:25:21.095Z,19.10
2018-09-27T16:27:48.915Z,19.10
2018-09-27T16:30:16.908Z,19.10
2018-09-27T16:32:44.665Z,19.10
2018-09-27T16:35:12.526Z,19.10
2018-09-27T16:37:40.727Z,19.10
2018-09-27T16:40:08.625Z,19.10
2018-09-27T16:42:36.434Z,19.10
2018-09-27T16:45:05.169Z,19.10
2018-09-27T16:47:33.870Z,19.10
2018-09-27T16:50:01.911Z,19.10
2018-09-27T16:52:29.739Z,19.10
2018-09-27T16:54:57.291Z,19.10
2018-09-27T16:57:25.382Z,19.10
2018-09-27T16:59:52.980Z,19.10
2018-09-27T17:02:20.495Z,19.10
2018-09-27T17:04:48.650Z,19.10
2018-09-27T17:07:16.980Z,19.10
2018-09-27T17:09:44.753Z,19.10
2018-09-27T17:12:12.566Z,19.10
2018-09-27T17:14:41.250Z,19.10
2018-09-27T17:17:09.284Z,19.10
2018-09-27T17:19:37.685Z,19.10
2018-09-27T17:22:05.617Z,19.10
2018-09-27T17:24:33.482Z,19.10
2018-09-27T17:27:00.989Z,19.10
2018-09-27T17:29:29.061Z,19.10
2018-09-27T17:31:56.990Z,19.10
2018-09-27T17:34:24.951Z,19.10
2018-09-27T17:36:53.384Z,19.10
2018-09-27T17:39:21.125Z,19.10
2018-09-27T17:41:48.897Z,19.10
2018-09-27T17:44:16.965Z,19.10
2018-09-27T17:46:45.602Z,19.10
2018-09-27T17:49:14.039Z,19.10
2018-09-27T17:51:41.720Z,19.10
2018-09-27T17:54:09.862Z,19.10
2018-09-27T17:56:37.874Z,19.10
2018-09-27T17:59:05.998Z,19.20
2018-09-27T18:01:33.759Z,19.20
2018-09-27T18:04:01.762Z,19.10
2018-09-27T18:06:29.729Z,19.20
2018-09-27T18:08:57.767Z,19.20
2018-09-27T18:11:25.600Z,19.20
2018-09-27T18:13:53.534Z,19.20
2018-09-27T18:16:21.704Z,19.20
2018-09-27T18:18:49.657Z,19.20
2018-09-27T18:21:17.603Z,19.20
2018-09-27T18:23:45.720Z,19.20
2018-09-27T18:26:13.115Z,19.20
2018-09-27T18:28:40.717Z,19.20
2018-09-27T18:31:08.506Z,19.20
2018-09-27T18:33:36.336Z,19.20
2018-09-27T18:36:03.799Z,19.20
2018-09-27T18:38:31.844Z,19.20
2018-09-27T18:40:59.927Z,19.20
2018-09-27T18:43:27.514Z,19.20
2018-09-27T18:45:55.123Z,19.20
2018-09-27T18:48:23.067Z,19.20
2018-09-27T18:50:50.631Z,19.20
2018-09-27T18:53:17.950Z,19.20
2018-09-27T18:55:45.330Z,19.20
2018-09-27T18:58:12.958Z,19.20
2018-09-27T19:00:40.467Z,19.20
2018-09-27T19:03:08.139Z,19.20
2018-09-27T19:05:36.482Z,19.20
2018-09-27T19:08:04.792Z,19.20
2018-09-27T19:10:32.835Z,19.20
2018-09-27T19:13:00.627Z,19.20
2018-09-27T19:15:28.412Z,19.20
2018-09-27T19:17:56.175Z,19.20
2018-09-27T19:20:23.740Z,19.20
2018-09-27T19:22:51.384Z,19.20
2018-09-27T19:25:19.248Z,19.30
2018-09-27T19:27:46.765Z,19.30
2018-09-27T19:30:14.731Z,19.30
2018-09-27T19:32:42.402Z,19.20
2018-09-27T19:35:10.101Z,19.20
2018-09-27T19:37:37.750Z,19.20
2018-09-27T19:40:05.691Z,19.30
2018-09-27T19:42:33.206Z,19.30
2018-09-27T19:45:01.092Z,19.20
2018-09-27T19:47:28.936Z,19.20
2018-09-27T19:49:56.907Z,19.30
2018-09-27T19:52:24.902Z,19.30
2018-09-27T19:54:52.694Z,19.30
2018-09-27T19:57:20.446Z,19.30
2018-09-27T19:59:48.136Z,19.30
2018-09-27T20:02:16.264Z,19.30
2018-09-27T20:04:44.581Z,19.30
2018-09-27T20:07:11.950Z,19.30
2018-09-27T20:09:39.296Z,19.30
2018-09-27T20:12:06.897Z,19.30
2018-09-27T20:14:34.511Z,19.30
2018-09-27T20:17:02.286Z,19.20
2018-09-27T20:19:29.540Z,19.20
2018-09-27T20:21:57.169Z,19.20
2018-09-27T20:24:24.600Z,19.10
2018-09-27T20:26:52.547Z,19.20
2018-09-27T20:29:19.951Z,19.10
2018-09-27T20:31:47.715Z,19.10
2018-09-27T20:34:15.888Z,19.10
2018-09-27T20:36:44.508Z,19.10
2018-09-27T20:39:12.485Z,19.10
2018-09-27T20:41:40.848Z,19.10
2018-09-27T20:44:08.871Z,19.10
2018-09-27T20:46:37.197Z,19.10
2018-09-27T20:49:05.377Z,19.20
2018-09-27T20:51:33.350Z,19.20
2018-09-27T20:54:01.454Z,19.20
2018-09-27T20:56:29.914Z,19.20
2018-09-27T20:58:58.296Z,19.20
2018-09-27T21:01:29.491Z,19.20
2018-09-27T21:03:57.313Z,19.20
2018-09-27T21:06:25.195Z,19.30
2018-09-27T21:08:53.409Z,19.30
2018-09-27T21:11:21.438Z,19.30
2018-09-27T21:13:49.956Z,19.30
2018-09-27T21:16:18.076Z,19.40
2018-09-27T21:18:46.313Z,19.40
2018-09-27T21:21:15.266Z,19.40
2018-09-27T21:23:43.154Z,19.40
2018-09-27T21:26:11.270Z,19.40
2018-09-27T21:28:39.673Z,19.40
2018-09-27T21:31:07.552Z,19.50
2018-09-27T21:33:35.358Z,19.50
2018-09-27T21:36:03.100Z,19.50
2018-09-27T21:38:30.899Z,19.50
2018-09-27T21:40:58.555Z,19.50
2018-09-27T21:43:26.501Z,19.50
2018-09-27T21:45:54.422Z,19.50
2018-09-27T21:48:22.436Z,19.50
2018-09-27T21:50:50.587Z,19.60
2018-09-27T21:53:18.631Z,19.60
2018-09-27T21:55:46.468Z,19.60
2018-09-27T21:58:14.668Z,19.60
2018-09-27T22:00:42.537Z,19.60
2018-09-27T22:03:10.250Z,19.60
2018-09-27T22:05:40.960Z,19.60
2018-09-27T22:08:09.138Z,19.60
2018-09-27T22:10:38.006Z,19.60
2018-09-27T22:13:05.726Z,19.70
2018-09-27T22:15:33.771Z,19.60
2018-09-27T22:18:01.599Z,19.70
2018-09-27T22:20:29.605Z,19.70
2018-09-27T22:22:57.764Z,19.70
2018-09-27T22:25:25.937Z,19.70
2018-09-27T22:27:54.095Z,19.70
2018-09-27T22:30:21.903Z,19.70
2018-09-27T22:32:50.066Z,19.70
2018-09-27T22:35:18.003Z,19.70
2018-09-27T22:37:46.197Z,19.70
2018-09-27T22:40:14.137Z,19.70
2018-09-27T22:42:42.408Z,19.70
2018-09-27T22:45:10.030Z,19.70
2018-09-27T22:47:38.065Z,19.70
2018-09-27T22:50:06.227Z,19.70
2018-09-27T22:52:34.242Z,19.70
2018-09-27T22:55:01.933Z,19.70
2018-09-27T22:57:30.147Z,19.70
2018-09-27T22:59:58.201Z,19.70
2018-09-27T23:02:26.059Z,19.80
2018-09-27T23:04:53.856Z,19.70
2018-09-27T23:07:21.883Z,19.70
2018-09-27T23:09:50.073Z,19.70
2018-09-27T23:12:17.860Z,19.70
2018-09-27T23:14:45.574Z,19.70
2018-09-27T23:17:13.426Z,19.70
2018-09-27T23:19:41.257Z,19.70
2018-09-27T23:22:08.923Z,19.70
2018-09-27T23:24:36.518Z,19.70
2018-09-27T23:27:04.484Z,19.70
2018-09-27T23:29:32.675Z,19.70
2018-09-27T23:32:00.655Z,19.70
2018-09-27T23:34:28.719Z,19.70
2018-09-27T23:36:56.600Z,19.70
2018-09-27T23:39:24.399Z,19.70
2018-09-27T23:41:52.669Z,19.70
2018-09-27T23:44:20.491Z,19.70
2018-09-27T23:46:48.705Z,19.60
2018-09-27T23:49:16.664Z,19.70
2018-09-27T23:51:44.515Z,19.60
2018-09-27T23:54:12.547Z,19.70
2018-09-27T23:56:41.498Z,19.60
2018-09-27T23:59:09.996Z,19.60
